aviador You're here:

SCDA Decoded Metar

IQUIQUE in CHILE
Report Time2017-08-24 03:00:00
UTC Time2017-08-24 03:07:53
Flight Rules mvfr MVFR
Wind220° at 06 kt
W.Decomp.*RWY 19: 5.0 kt HW 3.3 kt RCW
W.Rank220° ranks 5
Current wind is below 220° avg. (10.2)
Visibility9999 m
Phenomena:N/A
Clouds:Overcast 026 Hf
Expected CloudBase > 2,400 ft AGL from Temp-Dew spread
Ceiling2,600 ft
Temp17°C (ISA +2)
Dew Point11°C (68% RH)
AAT15.2°C
QNH1014 hPa
Density Alt591 ft
Elevation171 ft
Report Wrong Elevation
Raw Report
SCDA 240300Z 22006KT 9999 OVC026 17/11 Q1014=

Extra information for SCDA:More info

Metar Taf Metar & Taf Last 4 Metars F.Rules Stats Wind Profile Meteogram Temp Stats Airport Information Weather charts Add Link Nearby VenuesMetar ALERT Operation Metar Decoded Social comments